createdAt,value
2023-03-10T00:02:01.177Z,98326.75
2023-03-10T00:04:34.170Z,98308.91
2023-03-10T00:07:07.171Z,98311.41
2023-03-10T00:09:39.976Z,98318.41
2023-03-10T00:12:14.480Z,98291.06
2023-03-10T00:14:47.292Z,98304.59
2023-03-10T00:17:21.510Z,98250.03
2023-03-10T00:19:54.567Z,98280.41
2023-03-10T00:22:27.612Z,98274.81
2023-03-10T00:25:00.588Z,98269.69
2023-03-10T00:27:34.192Z,98271.97
2023-03-10T00:30:08.654Z,98280.19
2023-03-10T00:32:42.901Z,98264.19
2023-03-10T00:35:15.805Z,98229.84
2023-03-10T00:37:48.624Z,98240.22
2023-03-10T00:40:22.151Z,98243.88
2023-03-10T00:42:54.988Z,98257.41
2023-03-10T00:45:27.795Z,98226.47
2023-03-10T00:48:01.962Z,98233.41
2023-03-10T00:50:34.792Z,98216.59
2023-03-10T00:53:07.609Z,98191.78
2023-03-10T00:55:40.936Z,98206.44
2023-03-10T00:58:13.812Z,98194.75
2023-03-10T01:00:46.690Z,98200.25
2023-03-10T01:03:20.912Z,98200.00
2023-03-10T01:05:54.324Z,98176.53
2023-03-10T01:08:27.320Z,98179.28
2023-03-10T01:11:00.139Z,98165.09
2023-03-10T01:13:33.088Z,98168.84
2023-03-10T01:16:06.610Z,98150.69
2023-03-10T01:18:40.971Z,98126.84
2023-03-10T01:21:18.023Z,98140.91
2023-03-10T01:23:51.479Z,98134.09
2023-03-10T01:26:24.359Z,98127.34
2023-03-10T01:28:57.377Z,98123.53
2023-03-10T01:31:30.220Z,98110.22
2023-03-10T01:34:04.711Z,98091.25
2023-03-10T01:36:37.532Z,98129.97
2023-03-10T01:39:11.923Z,98132.16
2023-03-10T01:41:46.602Z,98169.59
2023-03-10T01:44:21.326Z,98173.97
2023-03-10T01:46:59.221Z,98201.44
2023-03-10T01:49:42.694Z,98207.69
2023-03-10T01:52:18.894Z,98200.84
2023-03-10T01:54:56.313Z,98214.38
2023-03-10T01:57:33.898Z,98222.34
2023-03-10T02:00:12.187Z,98212.09
2023-03-10T02:02:55.719Z,98214.97
2023-03-10T02:05:31.792Z,98213.34
2023-03-10T02:08:06.028Z,98215.22
2023-03-10T02:10:40.210Z,98243.38
2023-03-10T02:13:13.153Z,98236.78
2023-03-10T02:15:47.479Z,98234.31
2023-03-10T02:18:23.429Z,98238.47
2023-03-10T02:21:08.978Z,98238.19
2023-03-10T02:24:00.326Z,98237.53
2023-03-10T02:26:41.588Z,98235.53
2023-03-10T02:29:21.422Z,98228.28
2023-03-10T02:31:56.018Z,98228.13
2023-03-10T02:34:29.674Z,98240.53
2023-03-10T02:37:02.911Z,98236.75
2023-03-10T02:39:35.805Z,98234.72
2023-03-10T02:42:12.173Z,98239.56
2023-03-10T02:44:48.828Z,98246.19
2023-03-10T02:47:21.974Z,98233.13
2023-03-10T02:49:54.770Z,98225.97
2023-03-10T02:52:35.171Z,98230.97
2023-03-10T02:55:08.740Z,98236.09
2023-03-10T02:57:41.649Z,98233.28
2023-03-10T03:00:17.135Z,98237.44
2023-03-10T03:02:50.004Z,98226.69
2023-03-10T03:05:22.951Z,98232.63
2023-03-10T03:07:55.761Z,98231.66
2023-03-10T03:10:28.963Z,98227.16
2023-03-10T03:13:02.341Z,98231.66
2023-03-10T03:15:36.927Z,98230.50
2023-03-10T03:18:10.029Z,98223.84
2023-03-10T03:20:44.020Z,98223.34
2023-03-10T03:23:18.301Z,98222.53
2023-03-10T03:25:51.220Z,98189.59
2023-03-10T03:28:27.079Z,98225.81
2023-03-10T03:31:02.100Z,98222.34
2023-03-10T03:33:36.854Z,98225.00
2023-03-10T03:36:09.908Z,98232.97
2023-03-10T03:38:42.952Z,98227.03
2023-03-10T03:41:15.981Z,98225.72
2023-03-10T03:43:49.361Z,98228.00
2023-03-10T03:46:23.983Z,98201.22
2023-03-10T03:48:57.020Z,98220.72
2023-03-10T03:51:30.397Z,98217.00
2023-03-10T03:54:04.606Z,98223.66
2023-03-10T03:56:42.523Z,98223.44
2023-03-10T03:59:18.114Z,98225.16
2023-03-10T04:01:52.476Z,98227.25
2023-03-10T04:04:25.666Z,98230.00
2023-03-10T04:06:58.972Z,98219.91
2023-03-10T04:09:32.206Z,98208.75
2023-03-10T04:12:06.334Z,98218.31
2023-03-10T04:14:39.482Z,98215.66
2023-03-10T04:17:13.663Z,98221.63
2023-03-10T04:19:54.155Z,98197.63
2023-03-10T04:22:30.488Z,98222.88
2023-03-10T04:25:04.866Z,98216.19
2023-03-10T04:27:38.013Z,98221.25
2023-03-10T04:30:13.841Z,98220.75
2023-03-10T04:32:51.732Z,98195.59
2023-03-10T04:35:27.365Z,98220.66
2023-03-10T04:38:00.320Z,98216.63
2023-03-10T04:40:33.748Z,98206.00
2023-03-10T04:43:07.159Z,98208.84
2023-03-10T04:45:40.220Z,98202.28
2023-03-10T04:48:14.803Z,98195.25
2023-03-10T04:50:56.371Z,98200.50
2023-03-10T04:53:32.350Z,98199.09
2023-03-10T04:56:10.498Z,98196.88
2023-03-10T04:58:44.827Z,98203.22
2023-03-10T05:01:18.043Z,98196.69
2023-03-10T05:03:56.759Z,98193.59
2023-03-10T05:06:31.189Z,98201.38
2023-03-10T05:09:13.549Z,98191.31
2023-03-10T05:11:46.568Z,98184.31
2023-03-10T05:14:19.543Z,98186.50
2023-03-10T05:16:52.796Z,98159.38
2023-03-10T05:19:28.623Z,98180.38
2023-03-10T05:22:04.065Z,98182.06
2023-03-10T05:24:39.702Z,98182.38
2023-03-10T05:27:12.920Z,98174.78
2023-03-10T05:29:48.900Z,98174.22
2023-03-10T05:32:27.915Z,98178.84
2023-03-10T05:35:02.727Z,98177.53
2023-03-10T05:37:39.269Z,98176.81
2023-03-10T05:40:16.010Z,98169.00
2023-03-10T05:42:50.290Z,98174.41
2023-03-10T05:45:24.864Z,98177.75
2023-03-10T05:47:58.129Z,98180.59
2023-03-10T05:50:32.365Z,98180.47
2023-03-10T05:53:05.303Z,98158.25
2023-03-10T05:55:38.532Z,98183.06
2023-03-10T05:58:11.578Z,98180.41
2023-03-10T06:00:45.441Z,98178.38
2023-03-10T06:03:18.811Z,98167.19
2023-03-10T06:05:53.048Z,98178.34
2023-03-10T06:08:26.557Z,98179.28
2023-03-10T06:10:59.417Z,98179.66
2023-03-10T06:13:32.848Z,98169.09
2023-03-10T06:16:07.323Z,98184.41
2023-03-10T06:18:40.196Z,98181.19
2023-03-10T06:21:15.816Z,98189.66
2023-03-10T06:23:48.606Z,98188.28
2023-03-10T06:26:22.664Z,98193.97
2023-03-10T06:28:55.508Z,98190.94
2023-03-10T06:31:28.357Z,98183.31
2023-03-10T06:34:04.247Z,98173.25
2023-03-10T06:36:40.236Z,98186.69
2023-03-10T06:39:13.126Z,98184.50
2023-03-10T06:41:45.915Z,98196.25
2023-03-10T06:44:19.155Z,98202.03
2023-03-10T06:46:52.004Z,98196.88
2023-03-10T06:49:29.975Z,98199.56
2023-03-10T06:52:04.314Z,98205.50
2023-03-10T06:54:37.845Z,98202.22
2023-03-10T06:57:10.724Z,98201.09
2023-03-10T06:59:43.680Z,98188.19
2023-03-10T07:02:16.545Z,98182.69
2023-03-10T07:04:49.445Z,98193.66
2023-03-10T07:07:23.852Z,98209.75
2023-03-10T07:09:57.476Z,98199.00
2023-03-10T07:12:30.632Z,98206.78
2023-03-10T07:15:03.478Z,98208.91
2023-03-10T07:17:36.521Z,98209.56
2023-03-10T07:20:11.295Z,98212.84
2023-03-10T07:22:45.824Z,98220.31
2023-03-10T07:25:18.818Z,98216.25
2023-03-10T07:27:51.610Z,98221.69
2023-03-10T07:30:24.417Z,98211.50
2023-03-10T07:32:57.498Z,98228.66
2023-03-10T07:35:30.818Z,98229.50
2023-03-10T07:38:05.965Z,98238.31
2023-03-10T07:40:40.249Z,98227.03
2023-03-10T07:43:13.073Z,98239.16
2023-03-10T07:45:46.199Z,98246.22
2023-03-10T07:48:19.109Z,98205.16
2023-03-10T07:50:56.984Z,98225.38
2023-03-10T07:53:31.506Z,98229.34
2023-03-10T07:56:06.293Z,98233.38
2023-03-10T07:58:39.900Z,98233.38
2023-03-10T08:01:16.960Z,98239.94
2023-03-10T08:03:50.399Z,98238.78
2023-03-10T08:06:25.664Z,98249.53
2023-03-10T08:09:00.133Z,98242.63
2023-03-10T08:11:32.914Z,98248.06
2023-03-10T08:14:05.823Z,98248.44
2023-03-10T08:16:39.255Z,98243.56
2023-03-10T08:19:12.311Z,98237.59
2023-03-10T08:21:45.698Z,98254.66
2023-03-10T08:24:19.886Z,98257.00
2023-03-10T08:26:52.791Z,98245.22
2023-03-10T08:29:25.870Z,98254.00
2023-03-10T08:31:58.957Z,98238.78
2023-03-10T08:34:33.423Z,98254.00
2023-03-10T08:37:06.364Z,98260.47
2023-03-10T08:39:40.737Z,98268.78
2023-03-10T08:42:14.431Z,98270.22
2023-03-10T08:44:47.389Z,98268.25
2023-03-10T08:47:20.183Z,98269.44
2023-03-10T08:49:52.990Z,98270.44
2023-03-10T08:52:25.812Z,98257.66
2023-03-10T08:55:00.110Z,98263.22
2023-03-10T08:57:33.517Z,98223.91
2023-03-10T09:00:09.194Z,98251.47
2023-03-10T09:02:42.023Z,98243.03
2023-03-10T09:05:14.892Z,98259.00
2023-03-10T09:07:47.705Z,98238.38
2023-03-10T09:10:22.554Z,98264.56
2023-03-10T09:13:11.042Z,98261.81
2023-03-10T09:15:46.013Z,98254.53
2023-03-10T09:18:18.980Z,98262.38
2023-03-10T09:20:54.977Z,98251.91
2023-03-10T09:23:27.935Z,98273.34
2023-03-10T09:26:02.142Z,98270.69
2023-03-10T09:28:35.183Z,98280.78
2023-03-10T09:31:09.778Z,98281.03
2023-03-10T09:33:42.771Z,98273.50
2023-03-10T09:36:16.373Z,98225.09
2023-03-10T09:38:49.574Z,98282.19
2023-03-10T09:41:44.914Z,98282.50
2023-03-10T09:44:25.903Z,98260.97
2023-03-10T09:47:23.443Z,98280.22
2023-03-10T09:50:11.300Z,98270.34
2023-03-10T09:52:47.294Z,98270.00
2023-03-10T09:55:23.221Z,98280.19
2023-03-10T09:57:58.901Z,98285.84
2023-03-10T10:00:38.384Z,98281.50
2023-03-10T10:03:18.312Z,98253.97
2023-03-10T10:05:55.165Z,98266.38
2023-03-10T10:08:31.233Z,98294.44
2023-03-10T10:11:04.440Z,98289.81
2023-03-10T10:13:43.159Z,98289.81
2023-03-10T10:16:34.616Z,98264.63
2023-03-10T10:19:15.600Z,98292.78
2023-03-10T10:21:52.406Z,98294.13
2023-03-10T10:24:25.392Z,98273.75
2023-03-10T10:26:58.223Z,98279.22
2023-03-10T10:29:36.341Z,98296.09
2023-03-10T10:32:12.191Z,98307.03
2023-03-10T10:34:47.207Z,98305.72
2023-03-10T10:37:22.464Z,98302.41
2023-03-10T10:39:59.730Z,98301.91
2023-03-10T10:42:35.098Z,98295.13
2023-03-10T10:45:28.042Z,98303.41
2023-03-10T10:48:00.997Z,98293.78
2023-03-10T10:50:35.566Z,98300.91
2023-03-10T10:53:24.198Z,98290.97
2023-03-10T10:56:02.537Z,98297.59
2023-03-10T10:58:37.243Z,98301.34
2023-03-10T11:01:13.676Z,98298.13
2023-03-10T11:03:48.790Z,98294.06
2023-03-10T11:06:27.078Z,98293.19
2023-03-10T11:09:07.906Z,98283.69
2023-03-10T11:11:51.036Z,98289.44
2023-03-10T11:14:41.964Z,98275.59
2023-03-10T11:17:23.012Z,98284.50
2023-03-10T11:20:04.289Z,98282.84
2023-03-10T11:22:43.026Z,98281.19
2023-03-10T11:25:30.825Z,98282.97
2023-03-10T11:28:19.211Z,98279.88
2023-03-10T11:31:01.481Z,98277.28
2023-03-10T11:33:44.594Z,98272.53
2023-03-10T11:36:28.034Z,98272.34
2023-03-10T11:39:09.782Z,98272.44
2023-03-10T11:41:49.611Z,98270.19
2023-03-10T11:44:29.933Z,98265.88
2023-03-10T11:47:13.003Z,98266.91
2023-03-10T11:49:53.180Z,98261.19
2023-03-10T11:52:29.482Z,98260.03
2023-03-10T11:55:05.647Z,98260.06
2023-03-10T11:57:46.810Z,98251.22
2023-03-10T12:00:25.197Z,98239.16
2023-03-10T12:03:09.463Z,98247.22
2023-03-10T12:05:52.364Z,98229.69
2023-03-10T12:08:29.091Z,98227.22
2023-03-10T12:11:05.226Z,98222.28
2023-03-10T12:13:45.242Z,98219.28
2023-03-10T12:16:21.915Z,98225.69
2023-03-10T12:18:55.230Z,98223.03
2023-03-10T12:21:30.932Z,98223.34
2023-03-10T12:24:05.382Z,98218.59
2023-03-10T12:27:02.611Z,98220.72
2023-03-10T12:29:41.970Z,98213.97
2023-03-10T12:32:41.950Z,98211.91
2023-03-10T12:35:46.070Z,98213.72
2023-03-10T12:38:30.173Z,98210.69
2023-03-10T12:41:03.182Z,98200.03
2023-03-10T12:43:55.436Z,98207.00
2023-03-10T12:46:40.578Z,98228.78
2023-03-10T12:49:24.356Z,98237.09
2023-03-10T12:52:11.932Z,98234.06
2023-03-10T12:55:03.820Z,98232.72
2023-03-10T12:57:42.423Z,98219.94
2023-03-10T13:00:26.395Z,98220.56
2023-03-10T13:03:05.242Z,98218.34
2023-03-10T13:05:42.025Z,98220.38
2023-03-10T13:08:20.678Z,98219.44
2023-03-10T13:10:56.810Z,98209.75
2023-03-10T13:13:34.227Z,98207.91
2023-03-10T13:16:09.055Z,98211.44
2023-03-10T13:18:48.106Z,98202.78
2023-03-10T13:21:26.725Z,98202.91
2023-03-10T13:24:00.892Z,98195.53
2023-03-10T13:26:35.417Z,98191.44
2023-03-10T13:29:18.651Z,98190.22
2023-03-10T13:31:55.812Z,98186.09
2023-03-10T13:34:31.394Z,98182.69
2023-03-10T13:37:06.435Z,98177.38
2023-03-10T13:39:39.661Z,98168.56
2023-03-10T13:42:28.453Z,98168.56
2023-03-10T13:45:16.385Z,98174.72
2023-03-10T13:47:49.520Z,98182.31
2023-03-10T13:50:23.011Z,98182.31
2023-03-10T13:52:59.569Z,98180.38
2023-03-10T13:55:40.953Z,98182.94
2023-03-10T13:58:15.427Z,98190.41
2023-03-10T14:00:50.505Z,98193.78
2023-03-10T14:03:23.572Z,98194.16
2023-03-10T14:05:56.461Z,98201.03
2023-03-10T14:08:32.330Z,98205.53
2023-03-10T14:11:41.021Z,98195.97
2023-03-10T14:14:27.602Z,98189.84
2023-03-10T14:17:02.332Z,98183.97
2023-03-10T14:19:51.275Z,98196.44
2023-03-10T14:22:40.541Z,98200.69
2023-03-10T14:25:16.278Z,98197.97
2023-03-10T14:27:55.962Z,98195.50
2023-03-10T14:30:31.968Z,98188.38
2023-03-10T14:33:12.442Z,98185.16
2023-03-10T14:35:46.478Z,98185.09
2023-03-10T14:38:19.732Z,98177.28
2023-03-10T14:40:55.493Z,98179.91
2023-03-10T14:43:29.899Z,98164.09
2023-03-10T14:46:05.756Z,98166.75
2023-03-10T14:48:41.794Z,98167.19
2023-03-10T14:51:29.012Z,98164.44
2023-03-10T14:54:16.874Z,98147.31
2023-03-10T14:56:53.668Z,98149.22
2023-03-10T14:59:28.583Z,98160.59
2023-03-10T15:02:07.479Z,98160.88
2023-03-10T15:04:40.455Z,98157.28
2023-03-10T15:07:15.111Z,98149.63
2023-03-10T15:09:49.565Z,98160.06
2023-03-10T15:12:25.490Z,98158.31
2023-03-10T15:14:58.369Z,98158.28
2023-03-10T15:17:32.545Z,98148.22
2023-03-10T15:20:08.398Z,98158.31
2023-03-10T15:22:41.243Z,98134.84
2023-03-10T15:25:15.614Z,98121.00
2023-03-10T15:27:50.185Z,98153.53
2023-03-10T15:30:25.822Z,98166.34
2023-03-10T15:33:00.491Z,98116.44
2023-03-10T15:35:33.826Z,98150.13
2023-03-10T15:38:06.700Z,98157.44
2023-03-10T15:40:39.736Z,98138.00
2023-03-10T15:43:12.817Z,98152.88
2023-03-10T15:45:49.111Z,98169.09
2023-03-10T15:48:23.418Z,98155.53
2023-03-10T15:50:56.436Z,98165.56
2023-03-10T15:53:29.257Z,98169.16
2023-03-10T15:56:06.821Z,98177.34
2023-03-10T15:58:39.758Z,98180.81
2023-03-10T16:01:16.519Z,98199.38
2023-03-10T16:03:50.733Z,98205.31
2023-03-10T16:06:25.752Z,98219.84
2023-03-10T16:08:58.633Z,98232.34
2023-03-10T16:11:31.718Z,98254.44
2023-03-10T16:14:07.541Z,98256.72
2023-03-10T16:16:43.549Z,98263.81
2023-03-10T16:19:17.833Z,98278.44
2023-03-10T16:21:52.427Z,98304.69
2023-03-10T16:24:27.472Z,98355.06
2023-03-10T16:27:00.321Z,98342.00
2023-03-10T16:29:33.123Z,98386.66
2023-03-10T16:32:06.974Z,98414.94
2023-03-10T16:34:41.094Z,98417.16
2023-03-10T16:37:13.934Z,98424.78
2023-03-10T16:39:46.786Z,98451.78
2023-03-10T16:42:19.602Z,98463.13
2023-03-10T16:44:55.448Z,98484.97
2023-03-10T16:47:29.350Z,98517.44
2023-03-10T16:50:03.578Z,98520.94
2023-03-10T16:52:40.777Z,98557.00
2023-03-10T16:55:17.184Z,98548.66
2023-03-10T16:57:50.172Z,98584.69
2023-03-10T17:00:26.389Z,98601.88
2023-03-10T17:02:59.319Z,98618.13
2023-03-10T17:05:33.983Z,98627.28
2023-03-10T17:08:07.085Z,98648.00
2023-03-10T17:10:39.944Z,98657.22
2023-03-10T17:13:12.771Z,98663.94
2023-03-10T17:15:45.663Z,98703.09
2023-03-10T17:18:19.461Z,98729.84
2023-03-10T17:20:53.712Z,98734.97
2023-03-10T17:23:26.656Z,98756.72
2023-03-10T17:25:59.995Z,98775.47
2023-03-10T17:28:32.783Z,98791.09
2023-03-10T17:31:09.335Z,98800.50
2023-03-10T17:33:43.591Z,98834.97
2023-03-10T17:36:18.126Z,98846.97
2023-03-10T17:38:53.471Z,98859.63
2023-03-10T17:41:27.414Z,98897.81
2023-03-10T17:44:00.470Z,98877.91
2023-03-10T17:46:33.647Z,98903.53
2023-03-10T17:49:06.507Z,98895.94
2023-03-10T17:51:43.512Z,98928.13
2023-03-10T17:54:19.961Z,98909.78
2023-03-10T17:56:52.998Z,98945.28
2023-03-10T17:59:25.918Z,98943.88
2023-03-10T18:01:58.737Z,98956.53
2023-03-10T18:04:31.592Z,98987.00
2023-03-10T18:07:05.747Z,63727.28
2023-03-10T18:09:39.159Z,63727.28
2023-03-10T18:13:11.556Z,63727.28
2023-03-10T18:15:50.662Z,63727.28
2023-03-10T18:18:23.584Z,63727.28
2023-03-10T18:20:56.439Z,63727.28
2023-03-10T18:23:30.734Z,63727.28
2023-03-10T18:26:06.763Z,63727.28
2023-03-10T18:28:40.431Z,63727.28
2023-03-10T18:31:19.432Z,63727.28
2023-03-10T18:33:52.985Z,63727.28
2023-03-10T18:36:26.510Z,63727.28
2023-03-10T18:39:03.466Z,63727.28
2023-03-10T18:41:39.200Z,63727.28
2023-03-10T18:44:12.043Z,63727.28
2023-03-10T18:46:46.475Z,63727.28
2023-03-10T18:49:19.444Z,63727.28
2023-03-10T18:51:52.303Z,63727.28
2023-03-10T18:54:26.590Z,63727.28
2023-03-10T18:57:01.591Z,63727.28
2023-03-10T18:59:34.254Z,63727.28
2023-03-10T19:02:11.190Z,63727.28
2023-03-10T19:04:47.610Z,63727.28
2023-03-10T19:07:21.280Z,63727.28
2023-03-10T19:09:55.649Z,63727.28
2023-03-10T19:12:28.696Z,63727.28
2023-03-10T19:15:06.653Z,63727.28
2023-03-10T19:17:41.738Z,63727.28
2023-03-10T19:20:18.394Z,63727.28
2023-03-10T19:22:52.246Z,63727.28
2023-03-10T19:25:26.477Z,63727.28
2023-03-10T19:27:59.268Z,63727.28
2023-03-10T19:30:32.661Z,63727.28
2023-03-10T19:33:05.471Z,63727.28
2023-03-10T19:35:38.372Z,63727.28
2023-03-10T19:38:13.408Z,63727.28
2023-03-10T19:40:48.023Z,63727.28
2023-03-10T19:43:21.218Z,63727.28
2023-03-10T19:46:00.863Z,63727.28
2023-03-10T19:48:33.949Z,63727.28
2023-03-10T19:51:20.693Z,63727.28
2023-03-10T19:54:52.434Z,63727.28
2023-03-10T19:58:25.355Z,63727.28
2023-03-10T20:02:01.487Z,63727.28
2023-03-10T20:05:33.004Z,63727.28
2023-03-10T20:09:08.979Z,63727.28
2023-03-10T20:12:42.658Z,63727.28
2023-03-10T20:16:15.681Z,63727.28
2023-03-10T20:19:47.302Z,63727.28
2023-03-10T20:23:20.214Z,63727.28
2023-03-10T20:27:02.990Z,63727.28
2023-03-10T20:30:37.373Z,63727.28
2023-03-10T20:34:08.166Z,63727.28
2023-03-10T20:37:41.679Z,63727.28
2023-03-10T20:41:16.204Z,63727.28
2023-03-10T20:44:49.381Z,63727.28
2023-03-10T20:48:22.143Z,63727.28
2023-03-10T20:51:53.848Z,63727.28
2023-03-10T20:55:26.356Z,63727.28
2023-03-10T20:59:01.576Z,63727.28
2023-03-10T21:02:34.241Z,63727.28
2023-03-10T21:06:06.427Z,63727.28
2023-03-10T21:09:37.863Z,63727.28
2023-03-10T21:13:05.132Z,63727.28
2023-03-10T21:16:33.609Z,63727.28
2023-03-10T21:20:07.852Z,63727.28
2023-03-10T21:22:44.931Z,63727.28
2023-03-10T21:25:21.969Z,63727.28
2023-03-10T21:27:58.849Z,63727.28
2023-03-10T21:30:34.092Z,63727.28
2023-03-10T21:33:10.249Z,63727.28
2023-03-10T21:35:44.409Z,63727.28
2023-03-10T21:38:20.196Z,63727.28
2023-03-10T21:40:53.765Z,63727.28
2023-03-10T21:43:27.805Z,63727.28
2023-03-10T21:46:03.151Z,63727.28
2023-03-10T21:48:36.177Z,63727.28
2023-03-10T21:51:16.760Z,63727.28
2023-03-10T21:53:53.593Z,63727.28
2023-03-10T21:56:28.872Z,63727.28
2023-03-10T21:59:01.937Z,63727.28
2023-03-10T22:01:35.664Z,63727.28
2023-03-10T22:04:10.644Z,63727.28
2023-03-10T22:06:44.854Z,63727.28
2023-03-10T22:09:18.094Z,63727.28
2023-03-10T22:11:55.420Z,63727.28
2023-03-10T22:14:34.488Z,63727.28
2023-03-10T22:17:08.112Z,63727.28
2023-03-10T22:19:45.412Z,63727.28
2023-03-10T22:22:19.861Z,63727.28
2023-03-10T22:24:53.669Z,63727.28
2023-03-10T22:27:26.976Z,63727.28
2023-03-10T22:30:00.096Z,63727.28
2023-03-10T22:32:34.081Z,63727.28
2023-03-10T22:35:09.912Z,63727.28
2023-03-10T22:37:44.700Z,63727.28
2023-03-10T22:40:19.764Z,63727.28
2023-03-10T22:42:55.701Z,63727.28
2023-03-10T22:45:31.019Z,63727.28
2023-03-10T22:48:06.819Z,63727.28
2023-03-10T22:50:43.481Z,63727.28
2023-03-10T22:53:20.936Z,63727.28
2023-03-10T22:55:53.742Z,63727.28
2023-03-10T22:58:26.577Z,63727.28
2023-03-10T23:01:00.741Z,63727.28
2023-03-10T23:03:34.615Z,63727.28
2023-03-10T23:06:08.551Z,63727.28
2023-03-10T23:08:46.384Z,63727.28
2023-03-10T23:11:19.489Z,63727.28
2023-03-10T23:13:52.474Z,63727.28
2023-03-10T23:16:25.317Z,63727.28
2023-03-10T23:19:00.261Z,63727.28
2023-03-10T23:21:32.920Z,63727.28
2023-03-10T23:24:07.987Z,63727.28
2023-03-10T23:26:41.010Z,63727.28
2023-03-10T23:29:14.902Z,63727.28
2023-03-10T23:31:48.070Z,63727.28
2023-03-10T23:34:21.098Z,63727.28
2023-03-10T23:36:55.972Z,63727.28
2023-03-10T23:39:30.085Z,63727.28
2023-03-10T23:42:04.066Z,63727.28
2023-03-10T23:44:37.667Z,63727.28
2023-03-10T23:47:10.474Z,63727.28
2023-03-10T23:49:43.715Z,63727.28
2023-03-10T23:52:16.611Z,63727.28
2023-03-10T23:54:50.809Z,63727.28
2023-03-10T23:57:23.743Z,63727.28
2023-03-10T23:59:56.750Z,63727.28
